Time;durP1;ratioP1;P1;durP2;ratioP2;P2;SDS_P1;SDS_P2;PMS_P1;PMS_P2;Temp;Humidity;BMP_temperature;BMP_pressure;BME280_temperature;BME280_humidity;BME280_pressure;Samples;Min_cycle;Max_cycle;Signal;HPM_P1;HPM_P2
2023/03/26 00:01:32;;;;;;;25.23;3.77;;;8.10;99.90;;;;;;5071302;28;20056;-49
2023/03/26 00:03:58;;;;;;;25.53;4.10;;;8.10;99.90;;;;;;5071134;28;20531;-50
2023/03/26 00:06:30;;;;;;;26.07;4.37;;;8.10;99.90;;;;;;5052796;28;20028;-52
2023/03/26 00:08:57;;;;;;;26.73;3.57;;;8.10;99.90;;;;;;5071162;28;20061;-51
2023/03/26 00:11:26;;;;;;;26.33;4.23;;;8.10;99.90;;;;;;5070181;28;20032;-51
2023/03/26 00:13:55;;;;;;;26.20;3.97;;;8.10;99.90;;;;;;5070929;28;20028;-53
2023/03/26 00:16:22;;;;;;;;;;;8.20;99.90;;;;;;5071207;28;20851;-52
2023/03/26 00:18:47;;;;;;;23.83;4.47;;;8.20;99.90;;;;;;5070747;28;19935;-51
2023/03/26 00:21:37;;;;;;;36.57;4.93;;;8.20;99.90;;;;;;5070751;28;20469;-50
2023/03/26 00:24:07;;;;;;;25.00;4.63;;;8.20;99.90;;;;;;5070554;28;20036;-54
2023/03/26 00:26:36;;;;;;;28.27;4.33;;;8.20;99.90;;;;;;5070594;28;20075;-51
2023/03/26 00:29:03;;;;;;;32.80;4.43;;;8.20;99.90;;;;;;5070659;28;20044;-52
2023/03/26 00:31:29;;;;;;;29.70;5.20;;;8.20;99.90;;;;;;5070538;28;20687;-51
2023/03/26 00:33:54;;;;;;;33.00;4.53;;;8.30;99.90;;;;;;5070595;28;20066;-52
2023/03/26 00:36:22;;;;;;;29.33;4.97;;;8.20;99.90;;;;;;5052291;28;20089;-49
2023/03/26 00:38:48;;;;;;;29.50;3.87;;;8.30;99.90;;;;;;5035932;28;20437;-51
2023/03/26 00:41:16;;;;;;;21.87;4.10;;;8.30;99.90;;;;;;5052689;28;20389;-50
2023/03/26 00:43:47;;;;;;;24.23;4.03;;;8.30;99.90;;;;;;5070307;28;20480;-50
2023/03/26 00:46:13;;;;;;;30.30;4.17;;;8.30;99.90;;;;;;5052406;28;20408;-53
2023/03/26 00:48:41;;;;;;;33.07;4.47;;;8.30;99.90;;;;;;5070205;28;20028;-52
2023/03/26 00:51:09;;;;;;;24.93;4.20;;;8.30;99.90;;;;;;5070366;28;20025;-49
2023/03/26 00:53:37;;;;;;;25.37;4.33;;;8.30;99.90;;;;;;5070517;28;20028;-52
2023/03/26 00:56:05;;;;;;;26.20;4.43;;;8.30;99.90;;;;;;5065596;22;20020;-48
2023/03/26 00:58:31;;;;;;;30.63;4.90;;;8.30;99.90;;;;;;5069815;28;20042;-48
2023/03/26 01:01:01;;;;;;;23.77;4.17;;;8.30;99.90;;;;;;5052405;28;20088;-47
2023/03/26 01:03:29;;;;;;;30.67;4.40;;;8.30;99.90;;;;;;5070336;28;20374;-49
2023/03/26 01:06:01;;;;;;;27.30;3.80;;;8.30;99.90;;;;;;5070286;28;20032;-48
2023/03/26 01:08:38;;;;;;;29.20;4.10;;;8.30;99.90;;;;;;5070041;28;20036;-46
2023/03/26 01:11:12;;;;;;;23.83;3.90;;;8.20;99.90;;;;;;5052447;28;20473;-48
2023/03/26 01:13:45;;;;;;;28.97;4.77;;;8.30;99.90;;;;;;5070046;28;20032;-46
2023/03/26 01:16:25;;;;;;;29.50;4.43;;;8.30;99.90;;;;;;5070078;28;20469;-50
2023/03/26 01:18:52;;;;;;;22.03;4.20;;;8.30;99.90;;;;;;5070099;28;20326;-48
2023/03/26 01:21:27;;;;;;;32.17;4.30;;;8.30;99.90;;;;;;5070156;28;20413;-46
2023/03/26 01:24:04;;;;;;;27.73;3.30;;;8.30;99.90;;;;;;5073712;28;20025;-49
2023/03/26 01:26:49;;;;;;;21.33;3.93;;;8.20;99.90;;;;;;5073717;28;20119;-47
2023/03/26 01:29:30;;;;;;;23.47;4.00;;;8.20;99.90;;;;;;5074158;28;20494;-50
2023/03/26 01:32:01;;;;;;;23.53;3.47;;;8.20;99.90;;;;;;5073735;28;20025;-45
2023/03/26 01:34:51;;;;;;;29.73;3.83;;;8.20;99.90;;;;;;5055530;28;20228;-47
2023/03/26 01:37:31;;;;;;;24.93;4.07;;;8.20;99.90;;;;;;5073519;28;20033;-47
2023/03/26 01:40:41;;;;;;;31.00;4.10;;;8.20;99.90;;;;;;5073553;28;20119;-45
2023/03/26 01:43:23;;;;;;;26.37;4.53;;;8.10;99.90;;;;;;5072953;28;20056;-46
2023/03/26 01:45:50;;;;;;;24.87;3.40;;;8.10;99.90;;;;;;5073562;28;20043;-47
2023/03/26 01:48:16;;;;;;;23.10;3.80;;;8.10;99.90;;;;;;5055527;28;20032;-47
2023/03/26 01:50:43;;;;;;;32.27;5.20;;;8.10;99.90;;;;;;5073481;28;20103;-49
2023/03/26 01:53:11;;;;;;;25.17;4.27;;;8.00;99.90;;;;;;5055352;28;20021;-45
2023/03/26 01:56:17;;;;;;;26.10;3.63;;;8.00;99.90;;;;;;5073128;28;20036;-47
2023/03/26 01:59:02;;;;;;;30.63;3.63;;;7.90;99.90;;;;;;5057535;28;20803;-48
2023/03/26 02:01:44;;;;;;;22.10;4.03;;;7.90;99.90;;;;;;5073499;28;20056;-47
2023/03/26 02:04:10;;;;;;;24.47;4.17;;;7.80;99.90;;;;;;5055128;28;20062;-47
2023/03/26 02:06:46;;;;;;;28.40;3.63;;;7.80;99.90;;;;;;5072960;28;20107;-47
2023/03/26 02:09:17;;;;;;;23.67;4.47;;;7.70;99.90;;;;;;5072993;28;20036;-46
2023/03/26 02:11:45;;;;;;;24.97;3.87;;;7.70;99.90;;;;;;5055105;28;20032;-47
2023/03/26 02:14:13;;;;;;;29.77;4.53;;;7.70;99.90;;;;;;5072731;28;20024;-48
2023/03/26 02:16:39;;;;;;;26.00;3.30;;;7.60;99.90;;;;;;5072761;28;20025;-49
2023/03/26 02:19:14;;;;;;;29.03;3.87;;;7.60;99.90;;;;;;5072930;28;20051;-48
2023/03/26 02:21:40;;;;;;;28.90;4.33;;;7.70;99.90;;;;;;5054924;28;20064;-47
2023/03/26 02:24:06;;;;;;;29.27;3.97;;;7.70;99.90;;;;;;5054620;28;20062;-50
2023/03/26 02:26:36;;;;;;;30.33;3.77;;;7.80;99.90;;;;;;5054604;28;20063;-49
2023/03/26 02:29:11;;;;;;;25.77;3.80;;;7.80;99.90;;;;;;5054840;28;20024;-46
2023/03/26 02:31:39;;;;;;;;;;;7.90;99.90;;;;;;5054153;28;20090;-46
2023/03/26 02:34:05;;;;;;;25.57;3.47;;;7.90;99.90;;;;;;5071445;28;19908;-49
2023/03/26 02:36:34;;;;;;;30.90;4.13;;;7.90;99.90;;;;;;5054387;28;20024;-46
2023/03/26 02:39:02;;;;;;;20.95;3.58;;;7.90;99.90;;;;;;5054549;28;20028;-46
2023/03/26 02:41:31;;;;;;;28.52;3.80;;;8.00;99.90;;;;;;5072509;28;20039;-46
2023/03/26 02:44:01;;;;;;;28.97;4.60;;;8.00;99.90;;;;;;5072151;28;20032;-46
2023/03/26 02:46:46;;;;;;;27.03;4.63;;;8.00;99.90;;;;;;5072091;28;20492;-46
2023/03/26 02:49:47;;;;;;;25.97;4.37;;;8.10;99.90;;;;;;5071598;28;20505;-46
2023/03/26 02:52:21;;;;;;;30.93;5.00;;;8.10;99.90;;;;;;5054194;28;20086;-49
2023/03/26 02:54:48;;;;;;;44.07;4.80;;;8.10;99.90;;;;;;5053969;28;20074;-47
2023/03/26 02:57:20;;;;;;;30.87;4.30;;;8.10;99.90;;;;;;5053710;28;20164;-47
2023/03/26 02:59:49;;;;;;;28.38;4.63;;;8.00;99.90;;;;;;5072138;28;20036;-47
2023/03/26 03:02:36;;;;;;;29.93;4.47;;;8.00;99.90;;;;;;5072110;28;20070;-53
2023/03/26 03:05:19;;;;;;;24.07;4.80;;;8.00;99.90;;;;;;5053888;28;20024;-52
2023/03/26 03:07:56;;;;;;;31.93;3.93;;;8.00;99.90;;;;;;5053720;28;20503;-47
2023/03/26 03:10:26;;;;;;;32.47;4.80;;;8.00;99.90;;;;;;5053847;28;20472;-52
2023/03/26 03:12:53;;;;;;;21.23;4.27;;;7.90;99.90;;;;;;5071952;28;20119;-49
2023/03/26 03:15:19;;;;;;;34.23;4.30;;;8.00;99.90;;;;;;5071360;28;20504;-47
2023/03/26 03:17:46;;;;;;;22.80;3.73;;;7.90;99.90;;;;;;5053522;28;20021;-46
2023/03/26 03:20:12;;;;;;;23.17;3.90;;;7.90;99.90;;;;;;5053700;28;20401;-48
2023/03/26 03:22:39;;;;;;;25.33;4.37;;;7.90;99.90;;;;;;5053814;28;20021;-48
2023/03/26 03:25:08;;;;;;;26.67;4.00;;;7.90;99.90;;;;;;5053541;28;20077;-48
2023/03/26 03:27:38;;;;;;;33.47;3.93;;;7.90;99.90;;;;;;5053311;28;20157;-48
2023/03/26 03:30:11;;;;;;;26.70;4.03;;;7.90;99.90;;;;;;5053569;28;20032;-49
2023/03/26 03:33:04;;;;;;;22.23;4.57;;;7.90;99.90;;;;;;5053579;28;20025;-50
2023/03/26 03:35:32;;;;;;;27.03;4.10;;;7.80;99.90;;;;;;5053210;28;20036;-48
2023/03/26 03:37:59;;;;;;;24.57;3.57;;;7.80;99.90;;;;;;5053171;28;20106;-47
2023/03/26 03:40:27;;;;;;;25.45;3.83;;;7.80;99.90;;;;;;5053206;28;20086;-50
2023/03/26 03:42:53;;;;;;;34.13;4.00;;;7.70;99.90;;;;;;5053333;28;20413;-47
2023/03/26 03:45:28;;;;;;;31.33;5.10;;;7.60;99.90;;;;;;5052901;28;20028;-47
2023/03/26 03:48:19;;;;;;;31.97;4.77;;;7.60;99.90;;;;;;5067183;28;20075;-47
2023/03/26 03:50:46;;;;;;;31.53;4.57;;;7.50;99.90;;;;;;5053059;28;20036;-48
2023/03/26 03:53:24;;;;;;;29.20;4.10;;;7.50;99.90;;;;;;5052951;28;20039;-47
2023/03/26 03:55:52;;;;;;;26.03;4.10;;;7.50;99.90;;;;;;5052778;28;20035;-50
2023/03/26 03:58:21;;;;;;;28.27;4.20;;;7.40;99.90;;;;;;5052724;28;20059;-48
2023/03/26 04:00:50;;;;;;;25.13;3.67;;;7.40;99.90;;;;;;5052751;28;20565;-48
2023/03/26 04:03:49;;;;;;;27.27;4.50;;;7.30;99.90;;;;;;5014820;28;20063;-46
2023/03/26 04:06:17;;;;;;;26.13;4.10;;;7.40;99.90;;;;;;5052529;28;20102;-46
2023/03/26 04:08:45;;;;;;;31.40;3.80;;;7.30;99.90;;;;;;5052396;28;20497;-50
2023/03/26 04:11:12;;;;;;;22.33;3.90;;;7.30;99.90;;;;;;5052541;28;20158;-48
2023/03/26 04:14:07;;;;;;;26.77;4.33;;;7.30;99.90;;;;;;5070137;28;20469;-48
2023/03/26 04:17:08;;;;;;;24.27;3.97;;;7.40;99.90;;;;;;5058908;28;20435;-48
2023/03/26 04:19:37;;;;;;;29.30;3.60;;;7.30;99.90;;;;;;5052405;28;20021;-47
2023/03/26 04:22:06;;;;;;;;;;;7.20;99.90;;;;;;5052878;28;20032;-46
2023/03/26 04:24:38;;;;;;;21.03;3.50;;;7.30;99.90;;;;;;5052159;28;19908;-51
2023/03/26 04:27:27;;;;;;;24.67;4.20;;;7.30;99.90;;;;;;5070375;28;20549;-47
2023/03/26 04:30:00;;;;;;;25.97;3.63;;;7.30;99.90;;;;;;5052392;28;20101;-49
2023/03/26 04:32:28;;;;;;;28.07;3.53;;;7.30;99.90;;;;;;5070012;28;20032;-48
2023/03/26 04:34:59;;;;;;;27.88;3.40;;;7.30;99.90;;;;;;5052005;28;20533;-46
2023/03/26 04:37:38;;;;;;;20.40;3.27;;;7.40;99.90;;;;;;5051989;28;20090;-49
2023/03/26 04:40:20;;;;;;;21.30;3.33;;;7.40;99.90;;;;;;5051982;28;20024;-47
2023/03/26 04:43:01;;;;;;;23.07;3.47;;;7.40;99.90;;;;;;5052100;28;20051;-49
2023/03/26 04:45:46;;;;;;;24.80;3.30;;;7.40;99.90;;;;;;5070380;28;20496;-47
2023/03/26 04:48:13;;;;;;;21.50;4.37;;;7.40;99.90;;;;;;5051908;28;20032;-47
2023/03/26 04:50:43;;;;;;;21.67;3.63;;;7.50;99.90;;;;;;5052053;28;20397;-49
2023/03/26 04:53:20;;;;;;;27.13;3.87;;;7.50;99.90;;;;;;5051984;28;20028;-49
2023/03/26 04:56:39;;;;;;;20.70;3.50;;;7.50;99.90;;;;;;5069913;28;20465;-47
2023/03/26 04:59:33;;;;;;;23.57;3.23;;;7.50;99.90;;;;;;5055996;28;20381;-48
2023/03/26 05:02:04;;;;;;;22.20;3.47;;;7.50;99.90;;;;;;5056106;28;20028;-46
2023/03/26 05:04:38;;;;;;;18.67;3.20;;;7.50;99.90;;;;;;5055994;28;20499;-47
2023/03/26 05:07:04;;;;;;;23.55;3.75;;;7.40;99.90;;;;;;5055773;28;20035;-51
2023/03/26 05:09:40;;;;;;;18.80;3.27;;;7.40;99.90;;;;;;5055910;28;20493;-48
2023/03/26 05:12:17;;;;;;;27.50;3.70;;;7.50;99.90;;;;;;5073973;28;20025;-48
2023/03/26 05:15:06;;;;;;;32.80;4.53;;;7.50;99.90;;;;;;5062647;28;20384;-47
2023/03/26 05:17:45;;;;;;;15.80;3.28;;;7.50;99.90;;;;;;5055555;28;20025;-47
2023/03/26 05:20:26;;;;;;;18.87;2.80;;;7.40;99.90;;;;;;5055657;28;20032;-49
2023/03/26 05:22:52;;;;;;;22.90;3.67;;;7.50;99.90;;;;;;5055770;28;20025;-48
2023/03/26 05:25:29;;;;;;;25.37;3.63;;;7.40;99.90;;;;;;5055615;28;20146;-48
2023/03/26 05:27:56;;;;;;;15.67;2.83;;;7.30;99.90;;;;;;5055583;28;20112;-49
2023/03/26 05:30:26;;;;;;;19.33;2.90;;;7.40;99.90;;;;;;5055734;28;20101;-47
2023/03/26 05:32:56;;;;;;;23.27;2.80;;;7.40;99.90;;;;;;5055838;28;20033;-48
2023/03/26 05:35:27;;;;;;;22.73;3.53;;;7.30;99.90;;;;;;5055525;28;20447;-47
2023/03/26 05:37:54;;;;;;;18.50;3.40;;;7.30;99.90;;;;;;5055434;28;20488;-47
2023/03/26 05:40:22;;;;;;;19.45;2.72;;;7.30;99.90;;;;;;5055494;28;20024;-48
2023/03/26 05:43:08;;;;;;;24.83;3.40;;;7.30;99.90;;;;;;5072890;28;20382;-49
2023/03/26 05:45:37;;;;;;;22.63;3.77;;;7.30;99.90;;;;;;5073523;28;20046;-46
2023/03/26 05:48:23;;;;;;;19.67;3.40;;;7.30;99.90;;;;;;5072699;28;20037;-48
2023/03/26 05:50:50;;;;;;;20.40;3.27;;;7.30;99.90;;;;;;5055446;28;20029;-48
2023/03/26 05:53:17;;;;;;;22.60;4.10;;;7.30;99.90;;;;;;5073345;28;20033;-47
2023/03/26 05:55:56;;;;;;;17.10;2.72;;;7.30;99.90;;;;;;5073050;28;20074;-50
2023/03/26 05:58:40;;;;;;;28.70;6.53;;;7.30;99.90;;;;;;5073247;28;20044;-50
2023/03/26 06:01:25;;;;;;;22.40;4.30;;;7.40;99.90;;;;;;5073161;28;20053;-48
2023/03/26 06:04:17;;;;;;;20.23;3.90;;;7.40;99.90;;;;;;5072394;28;20062;-47
2023/03/26 06:07:12;;;;;;;19.13;2.90;;;7.40;99.90;;;;;;5059225;28;20032;-47
2023/03/26 06:09:42;;;;;;;22.87;3.57;;;7.40;99.90;;;;;;5053429;28;20032;-47
2023/03/26 06:12:09;;;;;;;22.00;3.67;;;7.40;99.90;;;;;;5072945;28;20037;-48
2023/03/26 06:14:36;;;;;;;20.03;3.20;;;7.40;99.90;;;;;;5054722;28;20361;-48
2023/03/26 06:17:12;;;;;;;19.70;3.67;;;7.40;99.90;;;;;;5054778;28;20056;-49
2023/03/26 06:19:57;;;;;;;16.60;3.03;;;7.40;99.90;;;;;;5072997;28;20400;-47
2023/03/26 06:22:32;;;;;;;15.47;2.97;;;7.40;99.90;;;;;;5055013;28;20024;-48
2023/03/26 06:25:17;;;;;;;22.17;3.70;;;7.40;99.90;;;;;;5054651;28;20036;-47
2023/03/26 06:27:54;;;;;;;17.23;2.80;;;7.40;99.90;;;;;;5054514;28;20037;-48
2023/03/26 06:30:43;;;;;;;23.10;4.22;;;7.40;99.90;;;;;;5072670;28;20052;-48
2023/03/26 06:33:20;;;;;;;19.00;3.43;;;7.40;99.90;;;;;;5054560;28;20519;-47
2023/03/26 06:35:49;;;;;;;17.55;3.17;;;7.40;99.90;;;;;;5054532;28;20063;-51
2023/03/26 06:38:16;;;;;;;17.47;3.20;;;7.40;99.90;;;;;;5054343;28;20538;-47
2023/03/26 06:40:42;;;;;;;28.13;3.90;;;7.40;99.90;;;;;;5054762;28;20489;-48
2023/03/26 06:43:32;;;;;;;20.70;3.70;;;7.40;99.90;;;;;;5072229;28;20032;-48
2023/03/26 06:46:36;;;;;;;18.63;3.17;;;7.50;99.90;;;;;;5072045;28;20556;-47
2023/03/26 06:49:34;;;;;;;17.13;3.38;;;7.50;99.90;;;;;;5072157;28;20058;-48
2023/03/26 06:52:27;;;;;;;15.73;3.23;;;7.60;99.90;;;;;;5054489;28;20115;-49
2023/03/26 06:55:19;;;;;;;21.83;3.27;;;7.60;99.90;;;;;;5040578;28;20065;-49
2023/03/26 06:58:00;;;;;;;17.30;3.50;;;7.70;99.90;;;;;;5053958;28;20441;-46
2023/03/26 07:01:01;;;;;;;15.93;3.43;;;7.70;99.90;;;;;;5072096;28;20497;-48
2023/03/26 07:04:05;;;;;;;16.90;2.67;;;7.70;99.90;;;;;;4990174;28;20034;-47
2023/03/26 07:06:49;;;;;;;19.43;3.63;;;7.70;99.90;;;;;;4990124;28;20045;-47
2023/03/26 07:09:34;;;;;;;20.30;3.13;;;7.70;99.90;;;;;;5048463;28;20512;-48
2023/03/26 07:12:00;;;;;;;19.53;3.23;;;7.80;99.90;;;;;;5072134;28;20033;-49
2023/03/26 07:14:44;;;;;;;14.13;2.90;;;7.80;99.90;;;;;;5071630;28;20469;-46
2023/03/26 07:17:45;;;;;;;18.17;2.90;;;7.80;99.90;;;;;;4989790;28;20026;-47
2023/03/26 07:20:14;;;;;;;21.55;3.30;;;7.80;99.90;;;;;;5038486;28;20124;-47
2023/03/26 07:22:41;;;;;;;14.77;3.10;;;7.80;99.90;;;;;;5053696;28;20040;-48
2023/03/26 07:25:13;;;;;;;17.93;3.43;;;7.70;99.90;;;;;;5053560;28;20119;-47
2023/03/26 07:28:29;;;;;;;18.70;3.67;;;7.80;99.90;;;;;;5071475;28;20059;-47
2023/03/26 07:31:29;;;;;;;23.55;4.50;;;7.80;99.90;;;;;;5053683;28;20032;-46
2023/03/26 07:34:47;;;;;;;22.70;3.30;;;7.80;99.90;;;;;;5016274;28;20096;-49
2023/03/26 07:37:40;;;;;;;20.10;3.50;;;7.80;99.90;;;;;;5071176;28;20021;-46
2023/03/26 07:40:42;;;;;;;19.43;3.97;;;7.80;99.90;;;;;;5071540;28;20067;-46
2023/03/26 07:43:36;;;;;;;22.07;3.93;;;7.70;99.90;;;;;;5070381;28;20408;-46
2023/03/26 07:46:10;;;;;;;17.50;3.27;;;7.70;99.90;;;;;;5071249;28;20037;-46
2023/03/26 07:48:50;;;;;;;19.43;3.00;;;7.70;99.90;;;;;;5053297;28;20040;-47
2023/03/26 07:51:32;;;;;;;13.07;3.20;;;7.60;99.90;;;;;;5071217;28;20602;-48
2023/03/26 07:54:12;;;;;;;24.33;4.70;;;7.60;99.90;;;;;;5053078;28;20485;-46
2023/03/26 07:57:03;;;;;;;21.07;3.60;;;7.70;99.90;;;;;;5052804;28;20028;-46
2023/03/26 08:00:22;;;;;;;20.43;3.80;;;7.70;99.90;;;;;;4998873;28;20134;-48
2023/03/26 08:03:12;;;;;;;23.43;3.70;;;7.80;99.90;;;;;;5052948;28;20082;-47
2023/03/26 08:06:26;;;;;;;13.53;3.33;;;7.80;99.90;;;;;;5071009;28;20071;-47
2023/03/26 08:09:19;;;;;;;20.00;3.47;;;7.90;99.90;;;;;;5052944;28;20028;-46
2023/03/26 08:12:08;;;;;;;14.57;3.50;;;7.90;99.90;;;;;;5053271;28;20414;-46
2023/03/26 08:14:41;;;;;;;18.07;3.90;;;7.90;99.90;;;;;;5070625;28;20056;-47
2023/03/26 08:17:15;;;;;;;22.10;4.60;;;7.90;99.90;;;;;;5070602;28;20025;-46
2023/03/26 08:19:57;;;;;;;21.70;4.33;;;8.00;99.90;;;;;;5070610;28;20465;-46
2023/03/26 08:22:37;;;;;;;18.43;4.03;;;8.00;99.90;;;;;;5070768;28;20157;-45
2023/03/26 08:25:48;;;;;;;21.30;3.73;;;8.10;99.90;;;;;;5070956;28;20029;-46
2023/03/26 08:28:42;;;;;;;18.60;3.60;;;8.10;99.90;;;;;;5060029;28;20060;-46
2023/03/26 08:31:10;;;;;;;23.60;4.53;;;8.10;99.90;;;;;;5070230;28;20032;-47
2023/03/26 08:33:35;;;;;;;18.77;4.20;;;8.10;99.90;;;;;;5070350;28;20032;-46
2023/03/26 08:36:01;;;;;;;18.27;3.83;;;8.10;99.90;;;;;;5070402;28;20429;-46
2023/03/26 08:38:27;;;;;;;14.07;3.50;;;8.10;99.90;;;;;;5070514;28;20421;-46
2023/03/26 08:41:11;;;;;;;13.23;3.50;;;8.10;99.90;;;;;;5070722;28;20295;-46
2023/03/26 08:44:01;;;;;;;10.33;3.00;;;8.10;99.90;;;;;;5070379;28;20029;-46
2023/03/26 08:46:47;;;;;;;16.47;3.23;;;8.10;99.90;;;;;;5070306;28;20028;-46
2023/03/26 08:49:31;;;;;;;12.27;3.07;;;8.20;99.90;;;;;;5070408;28;20035;-46
2023/03/26 08:52:43;;;;;;;13.47;3.03;;;8.20;99.90;;;;;;5070502;28;20032;-47
2023/03/26 08:55:30;;;;;;;11.60;2.90;;;8.10;99.90;;;;;;5070196;28;20093;-47
2023/03/26 08:58:08;;;;;;;17.17;3.40;;;8.10;99.90;;;;;;5070032;28;20021;-48
2023/03/26 09:00:49;;;;;;;11.30;3.40;;;8.10;99.90;;;;;;5070460;28;20025;-49
2023/03/26 09:03:43;;;;;;;8.83;2.70;;;8.10;99.90;;;;;;5070541;28;20032;-47
2023/03/26 09:06:39;;;;;;;14.03;2.67;;;8.10;99.90;;;;;;5070531;28;20039;-47
2023/03/26 09:09:43;;;;;;;15.47;3.30;;;8.10;99.90;;;;;;5070514;28;20150;-50
2023/03/26 09:12:23;;;;;;;12.53;3.00;;;8.00;99.90;;;;;;5070601;28;20073;-50
2023/03/26 09:15:22;;;;;;;13.83;2.97;;;8.00;99.90;;;;;;5070371;28;20083;-50
2023/03/26 09:18:26;;;;;;;13.38;2.67;;;8.00;99.90;;;;;;5070066;28;20091;-47
2023/03/26 09:21:06;;;;;;;13.70;2.87;;;8.10;99.90;;;;;;5048841;28;20036;-48
2023/03/26 09:23:51;;;;;;;;;;;8.10;99.90;;;;;;5070929;28;20029;-47
2023/03/26 09:26:45;;;;;;;10.17;2.70;;;8.10;99.90;;;;;;5070362;28;19916;-47
2023/03/26 09:29:35;;;;;;;16.60;4.23;;;8.10;99.90;;;;;;5070499;28;20385;-48
2023/03/26 09:32:16;;;;;;;15.43;3.63;;;8.10;99.90;;;;;;5070447;28;20400;-48
2023/03/26 09:35:13;;;;;;;19.70;5.20;;;8.10;99.90;;;;;;5070073;28;20033;-47
2023/03/26 09:37:45;;;;;;;18.83;5.40;;;8.20;99.90;;;;;;5070105;28;20035;-49
2023/03/26 09:40:19;;;;;;;13.83;4.20;;;8.20;99.90;;;;;;5070780;28;20035;-50
2023/03/26 09:43:03;;;;;;;13.93;3.00;;;8.30;99.90;;;;;;5070902;28;20025;-48
2023/03/26 09:45:51;;;;;;;15.57;3.60;;;8.30;99.90;;;;;;5073856;28;20032;-50
2023/03/26 09:48:21;;;;;;;19.27;4.13;;;8.30;99.90;;;;;;5068094;28;20059;-51
2023/03/26 09:51:19;;;;;;;8.77;2.90;;;8.30;99.90;;;;;;5073829;28;20039;-52
2023/03/26 09:54:09;;;;;;;8.07;2.13;;;8.30;99.90;;;;;;5073765;28;20331;-50
2023/03/26 09:57:02;;;;;;;9.83;2.07;;;8.10;99.90;;;;;;5073421;28;20119;-51
2023/03/26 09:59:41;;;;;;;9.20;2.60;;;8.10;99.90;;;;;;5073568;28;20029;-52
2023/03/26 10:02:12;;;;;;;;;;;8.10;99.90;;;;;;5074294;28;20107;-52
2023/03/26 10:04:58;;;;;;;14.73;6.07;;;8.00;99.90;;;;;;5073574;28;20288;-50
2023/03/26 10:07:58;;;;;;;5.33;1.43;;;8.00;99.90;;;;;;5073501;28;20017;-50
2023/03/26 10:10:44;;;;;;;4.80;1.17;;;8.00;99.90;;;;;;5072769;28;20035;-48
2023/03/26 10:13:25;;;;;;;8.40;2.27;;;7.90;99.90;;;;;;5073761;28;20608;-48
2023/03/26 10:16:15;;;;;;;7.50;2.50;;;7.90;99.90;;;;;;5073216;28;20032;-47
2023/03/26 10:19:18;;;;;;;7.23;1.90;;;7.80;99.90;;;;;;5073136;28;20028;-47
2023/03/26 10:21:52;;;;;;;7.80;2.37;;;7.70;99.90;;;;;;5073248;28;20466;-49
2023/03/26 10:24:43;;;;;;;11.30;1.93;;;7.80;99.90;;;;;;5073008;28;20029;-49
2023/03/26 10:27:21;;;;;;;6.47;1.70;;;7.70;99.90;;;;;;5073249;28;20031;-47
2023/03/26 10:30:03;;;;;;;8.13;1.80;;;7.70;99.90;;;;;;5073146;28;20017;-48
2023/03/26 10:33:02;;;;;;;6.30;1.70;;;7.70;99.90;;;;;;5073296;28;20035;-48
2023/03/26 10:35:56;;;;;;;7.73;1.63;;;7.80;99.90;;;;;;5054964;28;20063;-48
2023/03/26 10:38:35;;;;;;;9.00;1.80;;;7.80;99.90;;;;;;5072905;28;20029;-47
2023/03/26 10:41:20;;;;;;;4.15;1.20;;;7.80;99.90;;;;;;5073009;28;20407;-50
2023/03/26 10:44:26;;;;;;;2.83;0.90;;;7.70;99.90;;;;;;5073095;28;20496;-49
2023/03/26 10:47:10;;;;;;;2.60;0.63;;;7.50;99.90;;;;;;5072587;28;20040;-49
2023/03/26 10:50:04;;;;;;;2.97;0.87;;;7.30;99.90;;;;;;5072750;28;20435;-51
2023/03/26 10:52:45;;;;;;;3.83;0.90;;;7.20;99.90;;;;;;5072889;28;20031;-49
2023/03/26 10:55:24;;;;;;;3.17;0.70;;;7.10;99.90;;;;;;5071763;28;20043;-49
2023/03/26 10:58:28;;;;;;;4.75;0.80;;;7.10;99.90;;;;;;5072254;28;20033;-50
2023/03/26 11:01:32;;;;;;;3.73;0.90;;;7.00;99.90;;;;;;5030185;28;20048;-49
2023/03/26 11:04:07;;;;;;;5.20;1.30;;;6.90;99.90;;;;;;4997611;28;20036;-47
2023/03/26 11:06:37;;;;;;;4.30;1.07;;;7.00;99.90;;;;;;5049941;28;20107;-47
2023/03/26 11:09:11;;;;;;;4.83;1.23;;;7.00;99.90;;;;;;5054520;28;20485;-49
2023/03/26 11:11:54;;;;;;;4.20;1.20;;;7.10;99.90;;;;;;5072433;28;20036;-53
2023/03/26 11:14:43;;;;;;;3.93;1.10;;;7.20;99.90;;;;;;5071955;28;20024;-47
2023/03/26 11:17:22;;;;;;;2.63;0.98;;;7.20;99.90;;;;;;5072013;28;20024;-52
2023/03/26 11:20:16;;;;;;;3.85;0.85;;;7.30;99.90;;;;;;5072175;28;20033;-52
2023/03/26 11:23:19;;;;;;;3.20;1.27;;;7.40;99.90;;;;;;5071968;28;20056;-53
2023/03/26 11:26:01;;;;;;;4.47;1.00;;;7.40;99.90;;;;;;5071823;28;20032;-50
2023/03/26 11:28:42;;;;;;;3.80;1.03;;;7.40;99.90;;;;;;5053853;28;20034;-49
2023/03/26 11:31:26;;;;;;;3.67;0.93;;;7.40;99.90;;;;;;5071697;28;20055;-50
2023/03/26 11:34:02;;;;;;;3.30;0.70;;;7.50;99.90;;;;;;5053676;28;20480;-52
2023/03/26 11:36:39;;;;;;;12.17;6.13;;;7.60;99.90;;;;;;5071347;28;20059;-49
2023/03/26 11:39:14;;;;;;;2.70;0.80;;;7.70;99.90;;;;;;5071526;28;20025;-49
2023/03/26 11:41:40;;;;;;;3.13;0.57;;;7.70;99.90;;;;;;5071789;28;20033;-51
2023/03/26 11:44:21;;;;;;;2.55;0.80;;;7.80;99.90;;;;;;5071226;28;20032;-51
2023/03/26 11:46:51;;;;;;;2.90;0.77;;;7.80;99.90;;;;;;5071260;28;20035;-53
2023/03/26 11:49:20;;;;;;;3.17;0.90;;;7.80;99.90;;;;;;5071239;28;20029;-51
2023/03/26 11:51:47;;;;;;;2.80;0.87;;;7.90;99.90;;;;;;5053369;28;20052;-49
2023/03/26 11:54:14;;;;;;;4.17;0.80;;;7.90;99.90;;;;;;5053081;28;20088;-50
2023/03/26 11:56:42;;;;;;;3.50;0.80;;;8.00;99.90;;;;;;5071082;28;20096;-52
2023/03/26 11:59:11;;;;;;;5.35;1.30;;;8.10;99.90;;;;;;5071260;28;20135;-50
2023/03/26 12:01:54;;;;;;;2.80;0.73;;;8.20;99.90;;;;;;5071407;28;20024;-53
2023/03/26 12:04:34;;;;;;;4.00;0.80;;;8.20;99.90;;;;;;5052956;28;20033;-52
2023/03/26 12:07:17;;;;;;;1.87;0.90;;;8.20;99.90;;;;;;5070924;28;20025;-46
2023/03/26 12:10:03;;;;;;;6.40;1.83;;;8.20;99.90;;;;;;5070970;28;20069;-51
2023/03/26 12:12:40;;;;;;;3.73;0.87;;;8.40;99.90;;;;;;5070912;28;20017;-51
2023/03/26 12:15:17;;;;;;;2.47;0.80;;;8.40;99.90;;;;;;5070763;28;20032;-49
2023/03/26 12:17:45;;;;;;;3.97;1.10;;;8.40;99.90;;;;;;5070676;28;20029;-52
2023/03/26 12:20:25;;;;;;;;;;;8.40;99.90;;;;;;5053260;28;20050;-52
2023/03/26 12:22:51;;;;;;;4.73;0.90;;;8.50;99.90;;;;;;5070746;28;20333;-50
2023/03/26 12:25:20;;;;;;;2.03;0.90;;;8.50;99.90;;;;;;5070511;28;20431;-51
2023/03/26 12:27:51;;;;;;;2.30;0.73;;;8.60;99.90;;;;;;5070477;28;20032;-52
2023/03/26 12:30:24;;;;;;;4.77;1.17;;;8.70;99.90;;;;;;5070839;28;20040;-51
2023/03/26 12:32:55;;;;;;;3.43;1.13;;;8.80;99.90;;;;;;5070667;28;20107;-52
2023/03/26 12:35:33;;;;;;;1.93;0.80;;;8.90;99.90;;;;;;5070376;28;20466;-52
2023/03/26 12:38:23;;;;;;;3.20;0.80;;;8.90;99.90;;;;;;5070436;28;20302;-53
2023/03/26 12:41:12;;;;;;;1.10;0.70;;;9.00;99.90;;;;;;5070571;28;20039;-49
2023/03/26 12:43:47;;;;;;;2.17;0.70;;;9.20;99.90;;;;;;5070413;28;20039;-49
2023/03/26 12:46:31;;;;;;;2.93;1.00;;;9.10;99.90;;;;;;5070301;28;20033;-50
2023/03/26 12:49:03;;;;;;;2.33;1.10;;;9.10;99.90;;;;;;5070369;28;20465;-47
2023/03/26 12:51:56;;;;;;;1.70;0.80;;;9.20;99.90;;;;;;5070532;28;20112;-49
2023/03/26 12:54:44;;;;;;;1.60;0.70;;;9.30;99.90;;;;;;5069962;28;20047;-47
2023/03/26 12:57:22;;;;;;;2.80;0.67;;;9.40;99.90;;;;;;5084589;22;20048;-57
2023/03/26 12:59:48;;;;;;;0.60;0.50;;;9.50;99.90;;;;;;5070345;28;20384;-54
2023/03/26 13:02:28;;;;;;;2.17;0.50;;;9.70;99.90;;;;;;5070347;28;20036;-53
2023/03/26 13:05:27;;;;;;;0.63;0.50;;;9.80;99.90;;;;;;5070032;28;20036;-52
2023/03/26 13:08:11;;;;;;;;;;;9.70;99.90;;;;;;5070506;28;20033;-53
2023/03/26 13:10:44;;;;;;;1.03;0.50;;;9.70;99.90;;;;;;5070241;28;19912;-50
2023/03/26 13:13:31;;;;;;;3.83;0.70;;;9.60;99.90;;;;;;5070173;28;20043;-56
2023/03/26 13:16:25;;;;;;;1.43;0.70;;;9.60;99.90;;;;;;5070079;28;20035;-53
2023/03/26 13:19:06;;;;;;;2.00;0.83;;;9.60;99.90;;;;;;5067350;28;20373;-53
2023/03/26 13:21:41;;;;;;;1.90;0.80;;;9.70;99.90;;;;;;5056179;28;20032;-54
2023/03/26 13:24:28;;;;;;;1.93;0.70;;;9.90;99.90;;;;;;5074145;28;20028;-53
2023/03/26 13:26:57;;;;;;;2.30;0.53;;;9.90;99.90;;;;;;5073963;28;20025;-54
2023/03/26 13:29:34;;;;;;;0.80;0.50;;;9.70;99.90;;;;;;5073951;28;20028;-54
2023/03/26 13:32:21;;;;;;;1.27;0.60;;;9.80;99.90;;;;;;5073924;28;20367;-53
2023/03/26 13:34:56;;;;;;;1.67;0.60;;;9.80;99.90;;;;;;5073603;28;20039;-51
2023/03/26 13:37:35;;;;;;;1.17;0.33;;;9.90;99.90;;;;;;5073547;28;20033;-49
2023/03/26 13:40:24;;;;;;;2.50;0.50;;;10.10;99.90;;;;;;5073721;28;20428;-53
2023/03/26 13:43:25;;;;;;;1.13;0.60;;;10.00;99.90;;;;;;5073712;28;20024;-50
2023/03/26 13:46:09;;;;;;;1.90;0.80;;;10.00;99.90;;;;;;5031001;28;20033;-53
2023/03/26 13:48:38;;;;;;;2.53;1.10;;;10.00;99.90;;;;;;5069844;28;20040;-54
2023/03/26 13:51:41;;;;;;;3.15;0.90;;;9.90;99.90;;;;;;5073516;28;20111;-52
2023/03/26 13:54:20;;;;;;;4.53;2.07;;;9.90;99.90;;;;;;5049882;28;20079;-51